WSSL/XSP METAR and TAF weather

Enter ICAO airport designator
Station Type Date Time Source
WSSL METAR 2020/04/10 18:00 UTC NOAA

WSSL 101800Z 01005KT 340V050 9999 FEW018 BKN300 28/24 Q1011


Station Type Date Time Source
WSSL Decoded METAR 2020/04/10 18:00 UTC NOAA

Station name not available
Apr 10, 2020 - 02:00 PM EDT / 2020.04.10 1800 UTC
Wind: from the N (010 degrees) at 6 MPH (5 KT) (direction variable):0
Visibility: greater than 7 mile(s):0
Sky conditions: mostly cloudy
Temperature: 82 F (28 C)
Dew Point: 75 F (24 C)
Relative Humidity: 78%
Pressure (altimeter): 29.85 in. Hg (1011 hPa)
ob: WSSL 101800Z 01005KT 340V050 9999 FEW018 BKN300 28/24 Q1011
cycle: 18

Station Type Date Time Source
WSSL TAF 2020/04/10 18:00 UTC NOAA

TAF WSSL 101700Z 1018/1200 06008KT 9999 FEW015 SCT020
TEMPO 1106/1109 3000 TSRA FEW012CB BKN015

Example: see airport list